Ahsahka, ID (83520)

7:35 PM PST on December 02, 2016 (GMT -0800)
Linden-Cedar Ridge | | Change Station

Elev 2707 ft 46.69 °N, 116.50 °W | Updated 10 seconds ago

Overcast
Overcast
34.5 °F
Feels Like 27 °F
N
8.9
Wind Variable Wind from NW
Gusts 10.0 mph

Today
High -- | Low -- °F
--% Chance of Precip.
Yesterday
High -- | Low -- °F
Precip. -- in
Pressure 30.20 in
Visibility 10.0 miles
Clouds Scattered Clouds 5000 ft
Overcast 7000 ft
Windchill 27 °F
Dew Point 30 °F
Humidity 83%
Rainfall 0.00 in
Snow Depth Not available.
7:10 AM 3:59 PM
Waxing Crescent, 12% visible
METAR KLWS 030256Z 18011KT 10SM SCT050 OVC070 06/M02 A3016 RMK AO2 SLP226 T00611022 56019
Pressure 30.20 in
Visibility 10.0 miles
Clouds Scattered Clouds 5000 ft
Overcast 7000 ft
Windchill 27 °F
Dew Point 30 °F
Humidity 83%
Rainfall 0.00 in
Snow Depth Not available.
7:10 AM 3:59 PM
Waxing Crescent, 12% visible
METAR KLWS 030256Z 18011KT 10SM SCT050 OVC070 06/M02 A3016 RMK AO2 SLP226 T00611022 56019

10-Day Weather Forecast

Almanac

Astronomy

Dec. 02, 2016 Rise Set
Actual Time
Civil Twilight
Nautical Twilight
Astronomical Twilight
Moon
Length of Visible Light
Length of Day
Tomorrow will be .
, % of the Moon is Illuminated

Today's Extremes

State Highs State Lows

Community

WunderPhotos

Upload Photos

1,955,406 photos uploaded!

WunderBlog® & News

Nearby

Air Quality

  Air Quality AQ Index Pollutant
Not available.

Snow Depth

Station Depth Elevation

Earthquake Activity

City Distance Mag. Time & Date
Minimum magnitude displayed is 2.5.

Coastal Water Temperatures

Place Temperature

Stations

Nearby Weather Stations

Station Location Temp. Windchill Dew Point Humidity Wind Precip. Elev Updated Type
                   

Watches & Warnings

There are currently no watches in effect.